createdAt,value
2017-10-18T00:00:12.577Z,100180.91
2017-10-18T00:03:14.057Z,100180.25
2017-10-18T00:06:15.494Z,100185.02
2017-10-18T00:09:16.945Z,100187.21
2017-10-18T00:12:18.360Z,100195.46
2017-10-18T00:15:20.556Z,100199.13
2017-10-18T00:18:21.984Z,100193.59
2017-10-18T00:21:24.175Z,100201.66
2017-10-18T00:24:25.644Z,100199.95
2017-10-18T00:27:27.059Z,100196.72
2017-10-18T00:30:29.259Z,100199.59
2017-10-18T00:33:30.736Z,100199.40
2017-10-18T00:36:32.944Z,100196.54
2017-10-18T00:39:35.148Z,100195.59
2017-10-18T00:42:36.623Z,100188.45
2017-10-18T00:45:38.840Z,100180.92
2017-10-18T00:48:40.346Z,100184.48
2017-10-18T00:51:41.857Z,100177.38
2017-10-18T00:54:44.100Z,100180.42
2017-10-18T00:57:45.537Z,100167.89
2017-10-18T01:00:46.988Z,100170.50
2017-10-18T01:03:48.431Z,100185.73
2017-10-18T01:06:49.868Z,100173.14
2017-10-18T01:09:51.327Z,100179.37
2017-10-18T01:12:52.753Z,100172.88
2017-10-18T01:15:54.191Z,100171.59
2017-10-18T01:18:56.374Z,100177.29
2017-10-18T01:21:58.520Z,100163.71
2017-10-18T01:24:59.982Z,100169.95
2017-10-18T01:28:01.446Z,100158.05
2017-10-18T01:31:03.738Z,100161.10
2017-10-18T01:34:05.163Z,100154.45
2017-10-18T01:37:07.326Z,100152.63
2017-10-18T01:40:08.749Z,100148.87
2017-10-18T01:43:10.207Z,100151.36
2017-10-18T01:46:11.647Z,100139.65
2017-10-18T01:49:13.182Z,100146.53
2017-10-18T01:52:14.591Z,100141.42
2017-10-18T01:55:16.008Z,100133.13
2017-10-18T01:58:17.481Z,100141.14
2017-10-18T02:01:18.939Z,100124.30
2017-10-18T02:04:21.095Z,100127.39
2017-10-18T02:07:22.672Z,100131.55
2017-10-18T02:10:24.084Z,100133.98
2017-10-18T02:13:25.554Z,100135.86
2017-10-18T02:16:26.980Z,100124.59
2017-10-18T02:19:28.425Z,100131.63
2017-10-18T02:22:29.835Z,100126.99
2017-10-18T02:25:32.037Z,100129.39
2017-10-18T02:28:33.527Z,100128.30
2017-10-18T02:31:34.963Z,100128.25
2017-10-18T02:34:36.416Z,100124.11
2017-10-18T02:37:37.839Z,100111.41
2017-10-18T02:40:39.320Z,100115.88
2017-10-18T02:43:40.783Z,100110.24
2017-10-18T02:46:42.264Z,100110.76
2017-10-18T02:49:43.773Z,100115.58
2017-10-18T02:52:45.239Z,100119.66
2017-10-18T02:55:46.735Z,100103.36
2017-10-18T02:58:48.902Z,100108.50
2017-10-18T03:01:51.078Z,100103.58
2017-10-18T03:04:53.212Z,100106.93
2017-10-18T03:07:54.689Z,100105.63
2017-10-18T03:10:56.880Z,100103.75
2017-10-18T03:13:59.074Z,100097.77
2017-10-18T03:17:00.597Z,100093.04
2017-10-18T03:20:02.880Z,100095.13
2017-10-18T03:23:04.416Z,100081.78
2017-10-18T03:26:05.901Z,100091.12
2017-10-18T03:29:07.457Z,100089.18
2017-10-18T03:32:08.939Z,100084.73
2017-10-18T03:35:10.413Z,100076.09
2017-10-18T03:38:11.939Z,100076.95
2017-10-18T03:41:13.364Z,100067.00
2017-10-18T03:44:14.916Z,100073.16
2017-10-18T03:47:16.379Z,100065.04
2017-10-18T03:50:17.872Z,100076.33
2017-10-18T03:53:19.346Z,100066.55
2017-10-18T03:56:20.788Z,100061.48
2017-10-18T03:59:22.275Z,100055.76
2017-10-18T04:02:24.403Z,100062.64
2017-10-18T04:05:25.867Z,100068.72
2017-10-18T04:08:27.319Z,100053.41
2017-10-18T04:11:28.762Z,100060.53
2017-10-18T04:14:30.181Z,100050.14
2017-10-18T04:17:31.635Z,100045.19
2017-10-18T04:20:33.089Z,100039.01
2017-10-18T04:23:34.551Z,100044.05
2017-10-18T04:26:36.796Z,100046.56
2017-10-18T04:29:38.279Z,100047.22
2017-10-18T04:32:39.784Z,100042.56
2017-10-18T04:35:41.269Z,100034.11
2017-10-18T04:38:42.772Z,100023.06
2017-10-18T04:41:44.181Z,100019.23
2017-10-18T04:44:45.683Z,100027.54
2017-10-18T04:47:47.925Z,100021.50
2017-10-18T04:50:49.358Z,100016.56
2017-10-18T04:53:50.822Z,100015.20
2017-10-18T04:56:52.253Z,100011.23
2017-10-18T04:59:53.692Z,100004.38
2017-10-18T05:02:55.157Z,99992.44
2017-10-18T05:05:56.603Z,99995.30
2017-10-18T05:08:58.126Z,99999.08
2017-10-18T05:12:00.410Z,99999.95
2017-10-18T05:15:01.933Z,99993.23
2017-10-18T05:18:03.407Z,99994.70
2017-10-18T05:21:05.631Z,99991.45
2017-10-18T05:24:07.117Z,99985.78
2017-10-18T05:27:09.387Z,99985.96
2017-10-18T05:30:11.618Z,99983.53
2017-10-18T05:33:13.080Z,99984.77
2017-10-18T05:36:14.583Z,99976.83
2017-10-18T05:39:16.123Z,99979.79
2017-10-18T05:42:18.321Z,99978.40
2017-10-18T05:45:19.839Z,99988.20
2017-10-18T05:48:21.303Z,99974.14
2017-10-18T05:51:23.567Z,99982.67
2017-10-18T05:54:24.996Z,99975.63
2017-10-18T05:57:26.498Z,99980.52
2017-10-18T06:00:27.929Z,99974.41
2017-10-18T06:03:29.346Z,99990.17
2017-10-18T06:06:31.546Z,99986.37
2017-10-18T06:09:33.041Z,99976.88
2017-10-18T06:12:34.466Z,99982.06
2017-10-18T06:15:37.123Z,99984.60
2017-10-18T06:18:38.607Z,99991.14
2017-10-18T06:21:40.745Z,99997.10
2017-10-18T06:24:42.179Z,99995.05
2017-10-18T06:27:43.585Z,99993.95
2017-10-18T06:30:45.019Z,99993.44
2017-10-18T06:33:46.397Z,99989.23
2017-10-18T06:36:47.822Z,99992.58
2017-10-18T06:39:49.983Z,99993.84
2017-10-18T06:42:51.419Z,99999.42
2017-10-18T06:45:52.871Z,99992.92
2017-10-18T06:48:54.355Z,99994.33
2017-10-18T06:51:56.515Z,99983.73
2017-10-18T06:54:57.855Z,99983.50
2017-10-18T06:57:59.296Z,99980.89
2017-10-18T07:01:00.711Z,99981.73
2017-10-18T07:04:02.132Z,99979.85
2017-10-18T07:07:04.317Z,99991.84
2017-10-18T07:10:05.701Z,99990.45
2017-10-18T07:13:07.139Z,99987.13
2017-10-18T07:16:08.522Z,99990.86
2017-10-18T07:19:10.348Z,99996.66
2017-10-18T07:22:11.910Z,99997.48
2017-10-18T07:25:13.686Z,99984.84
2017-10-18T07:28:15.411Z,99991.54
2017-10-18T07:31:17.245Z,99986.92
2017-10-18T07:34:19.786Z,99988.02
2017-10-18T07:37:21.492Z,99996.09
2017-10-18T07:40:23.274Z,99992.87
2017-10-18T07:43:24.937Z,99990.45
2017-10-18T07:46:26.825Z,99990.58
2017-10-18T07:49:28.593Z,99996.78
2017-10-18T07:52:29.947Z,99987.59
2017-10-18T07:55:31.356Z,99994.52
2017-10-18T07:58:43.021Z,99991.19
2017-10-18T08:19:39.500Z,99976.52
2017-10-18T08:22:40.958Z,99985.81
2017-10-18T08:25:42.471Z,99982.63
2017-10-18T08:28:44.716Z,99982.13
2017-10-18T08:31:46.199Z,99976.04
2017-10-18T08:34:48.383Z,99972.15
2017-10-18T08:37:50.587Z,99959.48
2017-10-18T08:40:52.049Z,99960.77
2017-10-18T08:43:53.598Z,99955.43
2017-10-18T08:46:55.040Z,99967.13
2017-10-18T08:49:56.600Z,99959.45
2017-10-18T08:52:58.062Z,99962.54
2017-10-18T08:55:59.553Z,99970.52
2017-10-18T08:59:01.072Z,99974.17
2017-10-18T09:02:03.306Z,99961.70
2017-10-18T09:05:04.776Z,99957.84
2017-10-18T09:08:06.231Z,99957.77
2017-10-18T09:11:07.756Z,99954.20
2017-10-18T09:14:09.899Z,99951.91
2017-10-18T09:17:11.385Z,99954.95
2017-10-18T09:20:12.887Z,99943.94
2017-10-18T09:23:14.339Z,99953.62
2017-10-18T09:26:15.740Z,99948.92
2017-10-18T09:29:17.214Z,99952.38
2017-10-18T09:32:18.670Z,99939.75
2017-10-18T09:35:20.054Z,99938.00
2017-10-18T09:38:21.424Z,99938.19
2017-10-18T09:41:23.563Z,99937.53
2017-10-18T09:44:25.830Z,99931.19
2017-10-18T09:47:27.249Z,99936.46
2017-10-18T09:50:28.660Z,99933.30
2017-10-18T09:53:30.071Z,99924.98
2017-10-18T09:56:31.481Z,99934.40
2017-10-18T09:59:33.655Z,99930.48
2017-10-18T10:02:35.816Z,99917.08
2017-10-18T10:05:38.196Z,99928.58
2017-10-18T10:08:42.029Z,99923.52
2017-10-18T10:11:43.580Z,99929.12
2017-10-18T10:14:44.956Z,99926.89
2017-10-18T10:17:46.474Z,99919.84
2017-10-18T10:20:48.467Z,99920.94
2017-10-18T10:23:52.165Z,99918.16
2017-10-18T10:26:53.676Z,99926.66
2017-10-18T10:29:55.152Z,99919.16
2017-10-18T10:32:58.993Z,99921.98
2017-10-18T10:36:00.993Z,99919.06
2017-10-18T10:39:03.634Z,99920.77
2017-10-18T10:42:05.728Z,99921.09
2017-10-18T10:45:08.262Z,99916.00
2017-10-18T10:48:09.878Z,99905.38
2017-10-18T10:51:14.994Z,99910.95
2017-10-18T10:54:17.170Z,99906.50
2017-10-18T10:57:19.344Z,99904.94
2017-10-18T11:00:20.815Z,99901.64
2017-10-18T11:03:22.896Z,99909.00
2017-10-18T11:06:25.025Z,99904.70
2017-10-18T11:09:26.441Z,99906.92
2017-10-18T11:12:27.886Z,99908.81
2017-10-18T11:15:29.274Z,99902.95
2017-10-18T11:18:30.775Z,99908.91
2017-10-18T11:21:32.922Z,99899.85
2017-10-18T11:24:34.379Z,99888.89
2017-10-18T11:27:35.847Z,99885.56
2017-10-18T11:30:38.036Z,99889.06
2017-10-18T11:33:39.497Z,99885.99
2017-10-18T11:36:40.946Z,99889.47
2017-10-18T11:39:42.391Z,99886.04
2017-10-18T11:42:43.770Z,99880.78
2017-10-18T11:45:45.347Z,99879.42
2017-10-18T11:48:46.783Z,99875.89
2017-10-18T11:51:48.202Z,99877.95
2017-10-18T11:54:49.763Z,99873.78
2017-10-18T11:57:51.186Z,99869.67
2017-10-18T12:00:53.385Z,99863.86
2017-10-18T12:03:54.829Z,99860.06
2017-10-18T12:06:56.251Z,99867.99
2017-10-18T12:09:58.545Z,99864.29
2017-10-18T12:13:00.741Z,99851.92
2017-10-18T12:16:02.296Z,99867.05
2017-10-18T12:19:03.741Z,99851.03
2017-10-18T12:22:05.192Z,99868.00
2017-10-18T12:25:06.628Z,99857.40
2017-10-18T12:28:08.851Z,99861.46
2017-10-18T12:31:10.292Z,99847.64
2017-10-18T12:34:11.779Z,99855.48
2017-10-18T12:37:13.198Z,99851.97
2017-10-18T12:40:14.651Z,99853.47
2017-10-18T12:43:16.129Z,99844.22
2017-10-18T12:46:17.680Z,99846.72
2017-10-18T12:49:19.171Z,99835.00
2017-10-18T12:52:21.307Z,99834.73
2017-10-18T12:55:22.815Z,99833.39
2017-10-18T12:58:24.243Z,99826.89
2017-10-18T13:01:25.669Z,99828.52
2017-10-18T13:04:27.025Z,99835.91
2017-10-18T13:07:28.385Z,99831.72
2017-10-18T13:10:30.612Z,99819.34
2017-10-18T13:13:32.215Z,99822.04
2017-10-18T13:16:34.472Z,99823.95
2017-10-18T13:19:36.011Z,99824.30
2017-10-18T13:22:37.431Z,99826.00
2017-10-18T13:25:38.789Z,99817.21
2017-10-18T13:28:40.483Z,99822.72
2017-10-18T13:31:41.954Z,99817.21
2017-10-18T13:34:44.111Z,99815.27
2017-10-18T13:37:45.416Z,99812.45
2017-10-18T13:40:46.838Z,99810.64
2017-10-18T13:43:48.964Z,99813.44
2017-10-18T13:46:50.474Z,99815.57
2017-10-18T13:49:51.886Z,99814.95
2017-10-18T13:52:53.255Z,99810.81
2017-10-18T13:55:55.356Z,99807.77
2017-10-18T13:58:56.650Z,99807.91
2017-10-18T14:01:57.981Z,99802.00
2017-10-18T14:04:59.315Z,99810.43
2017-10-18T14:08:01.025Z,99807.58
2017-10-18T14:11:02.617Z,99810.01
2017-10-18T14:14:04.244Z,99811.22
2017-10-18T14:17:06.413Z,99811.71
2017-10-18T14:20:08.562Z,99814.16
2017-10-18T14:23:10.002Z,99818.42
2017-10-18T14:26:11.394Z,99807.48
2017-10-18T14:29:12.812Z,99809.33
2017-10-18T14:32:14.646Z,99801.01
2017-10-18T14:35:16.145Z,99811.52
2017-10-18T14:38:17.526Z,99811.09
2017-10-18T14:41:18.904Z,99811.59
2017-10-18T14:44:20.263Z,99803.41
2017-10-18T14:47:21.677Z,99798.21
2017-10-18T14:50:23.104Z,99806.09
2017-10-18T14:53:24.457Z,99810.37
2017-10-18T14:56:26.572Z,99804.16
2017-10-18T14:59:27.986Z,99811.80
2017-10-18T15:02:30.090Z,99814.06
2017-10-18T15:05:31.452Z,99802.85
2017-10-18T15:08:32.889Z,99808.19
2017-10-18T15:11:34.340Z,99806.34
2017-10-18T15:14:35.704Z,99807.41
2017-10-18T15:17:37.093Z,99810.34
2017-10-18T15:20:38.480Z,99807.84
2017-10-18T15:23:39.892Z,99806.09
2017-10-18T15:26:41.271Z,99812.96
2017-10-18T15:29:42.770Z,99813.78
2017-10-18T15:32:44.172Z,99802.16
2017-10-18T15:35:46.297Z,99804.98
2017-10-18T15:38:47.728Z,99812.00
2017-10-18T15:41:49.142Z,99805.36
2017-10-18T15:44:50.593Z,99802.13
2017-10-18T15:47:52.765Z,99812.73
2017-10-18T15:50:54.591Z,99812.56
2017-10-18T15:53:55.989Z,99808.65
2017-10-18T15:56:57.381Z,99816.10
2017-10-18T15:59:58.964Z,99813.27
2017-10-18T16:03:00.293Z,99812.29
2017-10-18T16:06:02.075Z,99810.10
2017-10-18T16:09:04.248Z,99817.98
2017-10-18T16:12:06.874Z,99812.13
2017-10-18T16:15:09.193Z,99813.99
2017-10-18T16:18:11.322Z,99813.53
2017-10-18T16:21:13.611Z,99823.39
2017-10-18T16:24:15.352Z,99815.12
2017-10-18T16:27:16.761Z,99822.97
2017-10-18T16:30:20.248Z,99822.16
2017-10-18T16:33:27.412Z,99833.14
2017-10-18T16:36:28.745Z,99830.63
2017-10-18T16:39:32.666Z,99827.88
2017-10-18T16:42:34.539Z,99826.77
2017-10-18T16:45:36.814Z,99834.26
2017-10-18T16:48:38.228Z,99827.32
2017-10-18T16:51:39.640Z,99826.95
2017-10-18T16:54:41.620Z,99835.50
2017-10-18T16:57:44.943Z,99828.02
2017-10-18T17:00:47.248Z,99834.13
2017-10-18T17:03:50.441Z,99838.33
2017-10-18T17:06:51.821Z,99840.18
2017-10-18T17:09:54.580Z,99840.30
2017-10-18T17:12:56.800Z,99838.58
2017-10-18T17:15:58.381Z,99845.55
2017-10-18T17:18:59.994Z,99833.20
2017-10-18T17:22:02.540Z,99842.04
2017-10-18T17:25:04.973Z,99841.17
2017-10-18T17:28:07.051Z,99834.36
2017-10-18T17:31:08.853Z,99826.64
2017-10-18T17:34:12.988Z,99833.23
2017-10-18T17:37:14.917Z,99841.37
2017-10-18T17:40:18.597Z,99832.62
2017-10-18T17:43:21.323Z,99837.02
2017-10-18T17:46:23.889Z,99835.91
2017-10-18T17:49:25.247Z,99845.73
2017-10-18T17:52:27.591Z,99838.44
2017-10-18T17:55:30.768Z,99836.30
2017-10-18T17:58:33.474Z,99839.78
2017-10-18T18:01:36.623Z,99843.44
2017-10-18T18:04:39.361Z,99851.15
2017-10-18T18:07:40.922Z,99842.73
2017-10-18T18:10:42.468Z,99842.17
2017-10-18T18:13:45.392Z,99843.34
2017-10-18T18:16:48.163Z,99841.27
2017-10-18T18:19:50.618Z,99844.39
2017-10-18T18:22:52.767Z,99847.45
2017-10-18T18:25:55.022Z,99846.70
2017-10-18T18:28:59.785Z,99841.17
2017-10-18T18:32:03.218Z,99847.61
2017-10-18T18:35:04.787Z,99843.38
2017-10-18T18:38:06.677Z,99845.22
2017-10-18T18:41:08.326Z,99834.74
2017-10-18T18:44:13.681Z,99842.05
2017-10-18T18:47:15.970Z,99840.31
2017-10-18T18:50:17.609Z,99846.70
2017-10-18T18:53:20.252Z,99846.31
2017-10-18T18:56:21.930Z,99846.05
2017-10-18T18:59:26.825Z,99845.22
2017-10-18T19:02:29.031Z,99856.92
2017-10-18T19:05:30.529Z,99855.98
2017-10-18T19:08:32.056Z,99850.28
2017-10-18T19:11:34.401Z,99848.43
2017-10-18T19:14:35.821Z,99846.11
2017-10-18T19:17:38.473Z,99846.30
2017-10-18T19:20:39.889Z,99857.32
2017-10-18T19:23:42.045Z,99857.34
2017-10-18T19:26:45.300Z,99842.54
2017-10-18T19:29:46.753Z,99846.03
2017-10-18T19:32:48.126Z,99847.63
2017-10-18T19:35:50.553Z,99848.98
2017-10-18T19:38:52.055Z,99850.66
2017-10-18T19:41:54.084Z,99846.13
2017-10-18T19:44:58.657Z,99855.69
2017-10-18T19:48:00.422Z,99850.45
2017-10-18T19:51:02.801Z,99853.27
2017-10-18T19:54:05.004Z,99848.05
2017-10-18T19:57:07.492Z,99849.52
2017-10-18T20:00:09.719Z,99845.01
2017-10-18T20:03:12.140Z,99839.45
2017-10-18T20:06:14.618Z,99836.22
2017-10-18T20:09:16.312Z,99844.08
2017-10-18T20:12:20.259Z,99851.14
2017-10-18T20:15:23.750Z,99847.73
2017-10-18T20:18:25.209Z,99850.66
2017-10-18T20:21:26.938Z,99853.84
2017-10-18T20:24:28.735Z,99841.14
2017-10-18T20:27:31.266Z,99853.77
2017-10-18T20:30:32.974Z,99853.81
2017-10-18T20:33:35.312Z,99854.64
2017-10-18T20:39:46.324Z,99854.79
2017-10-18T20:42:47.894Z,99853.09
2017-10-18T20:45:49.607Z,99853.69
2017-10-18T20:48:51.527Z,99855.90
2017-10-18T20:51:53.254Z,99860.30
2017-10-18T20:54:55.046Z,99863.87
2017-10-18T20:57:56.820Z,99861.80
2017-10-18T21:00:59.335Z,99854.45
2017-10-18T21:04:01.080Z,99858.48
2017-10-18T21:07:02.880Z,99853.88
2017-10-18T21:10:04.663Z,99848.02
2017-10-18T21:13:06.380Z,99845.80
2017-10-18T21:16:07.921Z,99832.44
2017-10-18T21:19:09.763Z,99831.64
2017-10-18T21:22:11.182Z,99836.66
2017-10-18T21:25:12.655Z,99840.47
2017-10-18T21:28:14.319Z,99836.95
2017-10-18T21:31:15.940Z,99839.11
2017-10-18T21:34:17.395Z,99827.30
2017-10-18T21:37:18.902Z,99831.45
2017-10-18T21:40:20.342Z,99827.95
2017-10-18T21:43:22.471Z,99824.33
2017-10-18T21:46:25.181Z,99829.97
2017-10-18T21:49:26.709Z,99824.37
2017-10-18T21:52:28.270Z,99830.01
2017-10-18T21:55:29.636Z,99826.61
2017-10-18T21:58:31.094Z,99829.72
2017-10-18T22:01:32.518Z,99832.53
2017-10-18T22:04:33.957Z,99836.88
2017-10-18T22:07:35.580Z,99837.41
2017-10-18T22:10:37.012Z,99831.41
2017-10-18T22:13:38.474Z,99835.28
2017-10-18T22:16:39.948Z,99828.59
2017-10-18T22:19:41.373Z,99835.83
2017-10-18T22:22:42.813Z,99838.31
2017-10-18T22:25:44.260Z,99837.20
2017-10-18T22:28:45.686Z,99818.37
2017-10-18T22:31:47.127Z,99838.50
2017-10-18T22:34:49.334Z,99829.36
2017-10-18T22:37:50.714Z,99836.55
2017-10-18T22:40:52.198Z,99839.38
2017-10-18T22:43:54.369Z,99839.55
2017-10-18T22:46:56.648Z,99838.79
2017-10-18T22:49:59.118Z,99836.69
2017-10-18T22:53:00.876Z,99834.67
2017-10-18T22:56:03.124Z,99834.30
2017-10-18T22:59:05.365Z,99844.64
2017-10-18T23:02:07.074Z,99844.45
2017-10-18T23:05:09.409Z,99837.80
2017-10-18T23:08:11.745Z,99836.45
2017-10-18T23:11:13.238Z,99839.50
2017-10-18T23:14:14.750Z,99843.56
2017-10-18T23:17:16.203Z,99839.94
2017-10-18T23:20:17.882Z,99839.63
2017-10-18T23:23:19.518Z,99848.26
2017-10-18T23:26:21.952Z,99842.09
2017-10-18T23:29:23.462Z,99838.12
2017-10-18T23:32:25.024Z,99848.14
2017-10-18T23:35:26.828Z,99837.19
2017-10-18T23:38:28.323Z,99837.38
2017-10-18T23:41:29.793Z,99835.15
2017-10-18T23:44:31.300Z,99826.05
2017-10-18T23:47:32.903Z,99837.30
2017-10-18T23:50:34.444Z,99835.73
2017-10-18T23:53:35.865Z,99837.47
2017-10-18T23:56:37.377Z,99843.17
2017-10-18T23:59:39.522Z,99829.91
